createdAt,value
2019-05-05T11:50:04.375Z,2.20
2019-05-05T11:55:11.663Z,2.20
2019-05-05T12:00:11.032Z,1.90
2019-05-05T12:05:14.073Z,1.63
2019-05-05T12:10:36.043Z,1.90
2019-05-05T12:15:39.293Z,1.50
2019-05-05T12:20:43.943Z,1.87
2019-05-05T12:26:01.240Z,1.80
2019-05-05T12:31:05.622Z,1.80
2019-05-05T12:36:07.772Z,2.07
2019-05-05T12:41:10.991Z,2.10
2019-05-05T12:46:33.950Z,2.20
2019-05-05T12:51:36.047Z,2.10
2019-05-05T12:56:38.212Z,2.30
2019-05-05T13:01:41.560Z,2.30
2019-05-05T13:06:45.203Z,2.40
2019-05-05T13:11:47.188Z,2.10
2019-05-05T13:16:53.183Z,1.90
2019-05-05T13:22:21.729Z,3.30
2019-05-05T13:27:27.692Z,1.70
2019-05-05T13:32:29.880Z,2.13
2019-05-05T13:37:33.726Z,2.33
2019-05-05T13:42:35.712Z,2.40
2019-05-05T13:47:37.901Z,1.60
2019-05-05T13:52:39.868Z,2.20
2019-05-05T13:57:41.902Z,2.17
2019-05-05T14:02:44.062Z,1.90
2019-05-05T14:07:46.117Z,2.10
2019-05-05T14:12:48.168Z,2.30
2019-05-05T14:17:54.245Z,2.03
2019-05-05T14:22:56.028Z,2.03
2019-05-05T14:27:57.983Z,2.20
2019-05-05T14:33:00.480Z,2.37
2019-05-05T14:38:06.077Z,1.80
2019-05-05T14:43:08.668Z,1.90
2019-05-05T14:48:11.551Z,1.90
2019-05-05T14:53:14.561Z,1.97
2019-05-05T14:58:18.441Z,1.97
2019-05-05T15:03:20.377Z,1.53
2019-05-05T15:08:33.505Z,1.80
2019-05-05T15:13:35.673Z,1.80
2019-05-05T15:18:37.661Z,1.93
2019-05-05T15:23:40.202Z,1.87
2019-05-05T15:28:44.051Z,1.90
2019-05-05T15:33:47.056Z,2.20
2019-05-05T15:38:49.085Z,2.20
2019-05-05T15:43:51.303Z,2.00
2019-05-05T15:48:54.580Z,2.27
2019-05-05T15:53:56.587Z,4.63
2019-05-05T15:58:59.112Z,2.10
2019-05-05T16:04:00.944Z,2.20
2019-05-05T16:09:06.154Z,2.00
2019-05-05T16:14:09.946Z,1.90
2019-05-05T16:19:20.922Z,1.93
2019-05-05T16:24:25.209Z,1.70
2019-05-05T16:29:27.808Z,1.70
2019-05-05T16:34:30.052Z,1.73
2019-05-05T16:39:33.591Z,1.87
2019-05-05T16:44:36.098Z,2.00
2019-05-05T16:49:37.928Z,1.67
2019-05-05T16:54:59.891Z,1.70
2019-05-05T17:00:02.149Z,1.60
2019-05-05T17:05:04.757Z,1.70
2019-05-05T17:10:07.828Z,1.80
2019-05-05T17:15:21.054Z,1.67
2019-05-05T17:20:24.595Z,1.90
2019-05-05T17:25:27.144Z,1.70
2019-05-05T17:30:29.459Z,3.50
2019-05-05T17:35:33.642Z,1.87
2019-05-05T17:40:54.258Z,2.17
2019-05-05T17:46:06.825Z,1.63
2019-05-05T17:51:23.438Z,1.70
2019-05-05T17:56:27.048Z,2.27
2019-05-05T18:01:29.432Z,2.30
2019-05-05T18:06:37.971Z,1.87
2019-05-05T18:11:48.473Z,2.00
2019-05-05T18:16:51.168Z,1.93
2019-05-05T18:21:54.789Z,2.90
2019-05-05T18:26:57.291Z,2.73
2019-05-05T18:32:00.149Z,2.30
2019-05-05T18:37:03.710Z,2.27
2019-05-05T18:42:10.982Z,3.03
2019-05-05T18:47:18.445Z,2.70
2019-05-05T18:52:20.826Z,2.80
2019-05-05T18:57:24.488Z,2.30
2019-05-05T19:02:44.122Z,2.20
2019-05-05T19:07:58.392Z,2.20
2019-05-05T19:13:00.943Z,2.47
2019-05-05T19:18:04.355Z,2.40
2019-05-05T19:23:07.097Z,2.63
2019-05-05T19:28:08.920Z,2.20
2019-05-05T19:33:10.778Z,6.20
2019-05-05T19:38:15.557Z,3.00
2019-05-05T19:43:16.315Z,3.00
2019-05-05T19:48:20.678Z,3.77
2019-05-05T19:53:25.496Z,3.30
2019-05-05T19:58:28.179Z,3.30
2019-05-05T20:03:30.261Z,3.40
2019-05-05T20:08:40.376Z,3.00
2019-05-05T20:13:36.755Z,3.40
2019-05-05T20:18:38.678Z,3.63
2019-05-05T20:23:40.612Z,3.70
2019-05-05T20:28:42.673Z,4.10
2019-05-05T20:33:54.360Z,3.97
2019-05-05T20:38:57.239Z,3.63
2019-05-05T20:43:59.508Z,3.67
2019-05-05T20:49:01.312Z,4.27
2019-05-05T20:54:04.786Z,3.60
2019-05-05T20:59:06.941Z,3.30
2019-05-05T21:04:09.196Z,3.30
2019-05-05T21:09:13.758Z,3.70
2019-05-05T21:14:15.850Z,3.67
2019-05-05T21:19:18.052Z,4.10
2019-05-05T21:24:20.165Z,3.70
2019-05-05T21:29:23.651Z,3.40
2019-05-05T21:34:25.864Z,3.00
2019-05-05T21:39:27.781Z,3.70
2019-05-05T21:44:29.680Z,3.43
2019-05-05T21:49:33.655Z,3.43
2019-05-05T21:54:46.505Z,3.80
2019-05-05T21:59:55.597Z,3.27
2019-05-05T22:04:54.354Z,3.17
2019-05-05T22:09:56.768Z,3.70
2019-05-05T22:14:58.692Z,3.53
2019-05-05T22:20:08.579Z,3.13
2019-05-05T22:25:10.641Z,3.50
2019-05-05T22:30:14.209Z,2.80
2019-05-05T22:35:16.419Z,3.43
2019-05-05T22:40:20.057Z,3.27
2019-05-05T22:45:23.696Z,3.40
2019-05-05T22:50:25.804Z,3.13
2019-05-05T22:55:28.072Z,3.83
2019-05-05T23:00:30.344Z,3.80
2019-05-05T23:05:39.633Z,3.73
2019-05-05T23:10:43.777Z,3.60
2019-05-05T23:15:54.423Z,3.47
2019-05-05T23:21:19.077Z,3.97
2019-05-05T23:26:22.160Z,3.67
2019-05-05T23:31:24.224Z,3.90
2019-05-05T23:36:26.462Z,4.03
2019-05-05T23:41:29.005Z,4.40
2019-05-05T23:46:31.177Z,4.20
2019-05-05T23:51:34.720Z,4.03
2019-05-05T23:56:37.210Z,4.13
